Time;durP1;ratioP1;P1;durP2;ratioP2;P2;SDS_P1;SDS_P2;PMS_P1;PMS_P2;Temp;Humidity;BMP_temperature;BMP_pressure;BME280_temperature;BME280_humidity;BME280_pressure;Samples;Min_cycle;Max_cycle;Signal;HPM_P1;HPM_P2
2022/01/17 00:01:38;;;;;;;7.77;2.90;;;;;;;;;;5068705;28;20063;-70
2022/01/17 00:04:06;;;;;;;6.30;3.33;;;;;;;;;;5053286;28;20535;-69
2022/01/17 00:06:33;;;;;;;8.47;2.97;;;;;;;;;;5053725;28;20399;-69
2022/01/17 00:09:00;;;;;;;10.20;4.77;;;;;;;;;;5053906;28;20017;-75
2022/01/17 00:11:26;;;;;;;11.33;4.50;;;;;;;;;;5051942;28;20028;-76
2022/01/17 00:13:53;;;;;;;9.37;4.73;;;;;;;;;;5054566;28;20044;-75
2022/01/17 00:16:25;;;;;;;10.53;4.33;;;;;;;;;;5066364;28;20020;-72
2022/01/17 00:19:07;;;;;;;10.03;3.30;;;;;;;;;;5068002;28;20103;-72
2022/01/17 00:21:34;;;;;;;7.60;3.27;;;;;;;;;;5070578;28;20021;-77
2022/01/17 00:24:00;;;;;;;7.13;3.03;;;;;;;;;;5073113;28;20027;-70
2022/01/17 00:26:27;;;;;;;5.60;2.93;;;;;;;;;;5072400;28;20033;-70
2022/01/17 00:28:57;;;;;;;6.30;3.37;;;;;;;;;;5072908;28;20031;-71
2022/01/17 00:31:23;;;;;;;8.97;3.87;;;;;;;;;;5068497;28;20116;-71
2022/01/17 00:33:50;;;;;;;11.70;3.53;;;;;;;;;;5050632;28;20313;-71
2022/01/17 00:36:17;;;;;;;11.10;3.37;;;;;;;;;;5064319;28;20112;-73
2022/01/17 00:38:43;;;;;;;5.80;3.67;;;;;;;;;;5067955;28;20470;-73
2022/01/17 00:41:10;;;;;;;8.80;3.10;;;;;;;;;;5049910;28;20029;-73
2022/01/17 00:43:37;;;;;;;6.03;3.17;;;;;;;;;;5049701;28;20024;-73
2022/01/17 00:46:04;;;;;;;9.17;2.93;;;;;;;;;;5052972;28;20078;-73
2022/01/17 00:48:30;;;;;;;6.83;2.40;;;;;;;;;;5052893;28;20036;-73
2022/01/17 00:50:57;;;;;;;4.70;2.43;;;;;;;;;;5052787;28;20033;-73
2022/01/17 00:53:24;;;;;;;7.03;2.93;;;;;;;;;;5054303;28;20033;-73
2022/01/17 00:55:50;;;;;;;18.23;4.57;;;;;;;;;;5050470;28;20187;-71
2022/01/17 00:58:17;;;;;;;16.30;6.87;;;;;;;;;;5055840;28;20074;-70
2022/01/17 01:00:45;;;;;;;22.43;6.57;;;;;;;;;;5063460;28;20135;-70
2022/01/17 01:03:12;;;;;;;16.27;6.87;;;;;;;;;;5047565;28;20025;-70
2022/01/17 01:05:39;;;;;;;17.73;6.47;;;;;;;;;;5058720;28;20066;-70
2022/01/17 01:08:06;;;;;;;14.77;6.23;;;;;;;;;;5052607;28;20025;-70
2022/01/17 01:10:33;;;;;;;12.43;6.07;;;;;;;;;;5052337;28;20025;-70
2022/01/17 01:13:00;;;;;;;15.20;6.37;;;;;;;;;;5051929;28;20111;-70
2022/01/17 01:15:46;;;;;;;11.50;6.30;;;;;;;;;;5064706;28;20379;-70
2022/01/17 01:18:18;;;;;;;13.77;4.57;;;;;;;;;;5055881;28;20025;-70
2022/01/17 01:28:43;;;;;;;;;;;;;;;;;;5051774;28;20123;-70
2022/01/17 01:31:18;;;;;;;7.53;2.30;;;;;;;;;;5051638;28;19908;-71
2022/01/17 01:33:51;;;;;;;;;;;;;;;;;;5060580;28;20040;-71
2022/01/17 01:36:24;;;;;;;9.27;1.97;;;;;;;;;;5072101;28;19931;-71
2022/01/17 01:38:51;;;;;;;6.23;2.37;;;;;;;;;;5071711;28;20025;-70
2022/01/17 01:41:17;;;;;;;7.87;2.53;;;;;;;;;;5047933;28;20596;-71
2022/01/17 01:43:48;;;;;;;11.93;2.40;;;;;;;;;;5059900;28;20124;-70
2022/01/17 01:46:18;;;;;;;7.63;2.33;;;;;;;;;;5054067;28;20491;-71
2022/01/17 01:48:45;;;;;;;4.33;2.23;;;;;;;;;;5059399;28;21089;-71
2022/01/17 01:51:13;;;;;;;7.90;2.83;;;;;;;;;;5050753;28;20086;-71
2022/01/17 01:53:39;;;;;;;6.30;2.57;;;;;;;;;;5066230;28;20510;-70
2022/01/17 01:56:06;;;;;;;3.83;2.17;;;;;;;;;;5071042;28;20032;-71
2022/01/17 01:58:33;;;;;;;6.80;2.10;;;;;;;;;;5069988;28;20024;-70
2022/01/17 02:01:01;;;;;;;14.60;2.63;;;;;;;;;;5058004;28;20027;-71
2022/01/17 02:03:27;;;;;;;5.80;2.40;;;;;;;;;;5049490;28;20033;-70
2022/01/17 02:05:54;;;;;;;6.70;2.43;;;;;;;;;;5047792;28;20072;-70
2022/01/17 02:08:21;;;;;;;8.90;2.17;;;;;;;;;;5046978;28;20040;-70
2022/01/17 02:10:51;;;;;;;5.23;2.23;;;;;;;;;;5058672;28;20034;-71
2022/01/17 02:13:18;;;;;;;9.70;2.13;;;;;;;;;;5069704;28;20035;-70
2022/01/17 02:15:46;;;;;;;5.27;2.10;;;;;;;;;;5055815;28;20040;-70
2022/01/17 02:18:19;;;;;;;12.07;4.30;;;;;;;;;;5065139;28;20036;-70
2022/01/17 02:21:09;;;;;;;11.40;3.90;;;;;;;;;;5051439;28;20028;-70
2022/01/17 02:23:32;;;;;;;10.47;3.40;;;;;;;;;;5051562;28;20041;-71
2022/01/17 02:25:59;;;;;;;9.70;2.73;;;;;;;;;;5046954;28;20043;-70
2022/01/17 02:28:26;;;;;;;8.43;2.47;;;;;;;;;;5050023;28;20374;-70
2022/01/17 02:30:53;;;;;;;4.43;2.07;;;;;;;;;;5050298;28;20029;-70
2022/01/17 02:33:20;;;;;;;7.30;3.23;;;;;;;;;;5061961;28;20025;-70
2022/01/17 02:35:50;;;;;;;9.70;3.20;;;;;;;;;;5054219;28;20025;-70
2022/01/17 02:38:16;;;;;;;6.87;2.73;;;;;;;;;;5063714;28;20024;-70
2022/01/17 02:40:43;;;;;;;7.70;2.50;;;;;;;;;;5075059;28;20039;-70
2022/01/17 02:43:10;;;;;;;7.87;3.37;;;;;;;;;;5075354;28;20024;-70
2022/01/17 02:46:24;;;;;;;9.90;4.50;;;;;;;;;;5075012;28;20594;-70
2022/01/17 02:48:25;;;;;;;9.17;3.50;;;;;;;;;;5069249;28;20036;-71
2022/01/17 02:50:52;;;;;;;8.47;4.10;;;;;;;;;;5069853;28;20028;-70
2022/01/17 02:53:19;;;;;;;7.00;3.37;;;;;;;;;;5058453;28;20032;-70
2022/01/17 02:55:50;;;;;;;5.20;2.63;;;;;;;;;;5064551;28;20125;-70
2022/01/17 02:58:20;;;;;;;9.53;2.90;;;;;;;;;;5074145;28;20122;-70
2022/01/17 03:00:48;;;;;;;6.83;2.90;;;;;;;;;;5064965;28;20099;-70
2022/01/17 03:03:15;;;;;;;11.33;4.27;;;;;;;;;;5064432;28;20550;-70
2022/01/17 03:05:42;;;;;;;13.33;3.43;;;;;;;;;;5069096;28;20041;-70
2022/01/17 03:08:09;;;;;;;6.03;2.50;;;;;;;;;;5054860;28;20431;-70
2022/01/17 03:13:07;;;;;;;6.17;2.80;;;;;;;;;;5057566;28;20040;-71
2022/01/17 03:15:34;;;;;;;10.33;3.73;;;;;;;;;;5051331;28;20366;-67
2022/01/17 03:18:01;;;;;;;7.60;2.80;;;;;;;;;;5059826;28;20505;-66
2022/01/17 03:20:28;;;;;;;6.90;3.13;;;;;;;;;;5054099;28;20044;-70
2022/01/17 03:22:55;;;;;;;9.83;3.23;;;;;;;;;;5054656;28;20053;-69
2022/01/17 03:25:22;;;;;;;9.70;3.07;;;;;;;;;;5054441;28;20086;-70
2022/01/17 03:27:49;;;;;;;6.03;2.77;;;;;;;;;;5054344;28;20029;-66
2022/01/17 03:30:17;;;;;;;6.87;2.73;;;;;;;;;;5072782;28;20020;-71
2022/01/17 03:32:44;;;;;;;9.57;3.20;;;;;;;;;;5067331;28;20027;-68
2022/01/17 03:35:11;;;;;;;6.83;3.10;;;;;;;;;;5049638;28;20021;-70
2022/01/17 03:37:38;;;;;;;7.57;3.93;;;;;;;;;;5068882;28;20017;-68
2022/01/17 03:40:05;;;;;;;10.03;3.20;;;;;;;;;;5068019;28;20522;-68
2022/01/17 03:42:32;;;;;;;10.93;3.20;;;;;;;;;;5073060;28;20032;-69
2022/01/17 03:45:00;;;;;;;9.70;3.47;;;;;;;;;;5072308;28;20028;-67
2022/01/17 03:47:27;;;;;;;10.67;3.37;;;;;;;;;;5071035;28;20107;-67
2022/01/17 03:49:54;;;;;;;9.00;3.23;;;;;;;;;;5054209;28;20033;-66
2022/01/17 03:52:24;;;;;;;5.37;2.70;;;;;;;;;;5063032;28;20056;-67
2022/01/17 03:54:50;;;;;;;8.47;2.67;;;;;;;;;;5068872;28;20468;-66
2022/01/17 03:57:17;;;;;;;12.00;2.87;;;;;;;;;;5066859;28;20066;-66
2022/01/17 03:59:44;;;;;;;6.47;2.57;;;;;;;;;;5068460;28;20028;-66
2022/01/17 04:02:11;;;;;;;14.63;3.80;;;;;;;;;;5066021;28;20486;-67
2022/01/17 04:04:37;;;;;;;17.83;2.87;;;;;;;;;;5065334;28;20029;-67
2022/01/17 04:07:04;;;;;;;8.03;3.13;;;;;;;;;;5054695;28;20472;-67
2022/01/17 04:09:31;;;;;;;7.83;3.10;;;;;;;;;;5071910;28;20478;-66
2022/01/17 04:11:57;;;;;;;6.20;3.17;;;;;;;;;;5072716;28;20036;-68
2022/01/17 04:14:24;;;;;;;10.37;3.10;;;;;;;;;;5073295;28;20035;-67
2022/01/17 04:16:51;;;;;;;12.57;3.63;;;;;;;;;;5058379;28;20388;-66
2022/01/17 04:19:19;;;;;;;7.10;2.50;;;;;;;;;;5048168;28;20029;-70
2022/01/17 04:21:47;;;;;;;11.77;2.40;;;;;;;;;;5048343;28;20075;-70
2022/01/17 04:24:14;;;;;;;5.67;2.10;;;;;;;;;;5058982;28;20028;-69
2022/01/17 04:26:42;;;;;;;8.37;2.70;;;;;;;;;;5054875;28;20043;-68
2022/01/17 04:29:09;;;;;;;13.17;2.87;;;;;;;;;;5053241;28;20021;-70
2022/01/17 04:31:36;;;;;;;8.50;2.37;;;;;;;;;;5054072;28;20423;-68
2022/01/17 04:34:03;;;;;;;5.93;2.13;;;;;;;;;;5072767;28;20071;-68
2022/01/17 04:36:30;;;;;;;9.67;2.47;;;;;;;;;;5061242;28;20024;-66
2022/01/17 04:38:56;;;;;;;6.53;2.43;;;;;;;;;;5051871;28;20025;-67
2022/01/17 04:41:34;;;;;;;7.20;2.37;;;;;;;;;;5067536;28;20020;-67
2022/01/17 04:45:07;;;;;;;8.97;2.67;;;;;;;;;;5067489;28;20033;-67
2022/01/17 04:46:48;;;;;;;9.33;2.47;;;;;;;;;;5067265;28;20048;-66
2022/01/17 04:49:15;;;;;;;9.97;2.67;;;;;;;;;;5072209;28;20543;-66
2022/01/17 04:51:41;;;;;;;6.27;2.70;;;;;;;;;;5072590;28;20051;-66
2022/01/17 04:54:38;;;;;;;6.87;2.20;;;;;;;;;;5067667;28;20033;-67
2022/01/17 04:57:01;;;;;;;9.03;2.73;;;;;;;;;;5052631;28;20048;-66
2022/01/17 04:59:27;;;;;;;12.80;2.40;;;;;;;;;;5052248;28;20461;-67
2022/01/17 05:01:54;;;;;;;10.63;2.60;;;;;;;;;;5047508;28;20060;-66
2022/01/17 05:04:21;;;;;;;6.83;2.57;;;;;;;;;;5067283;28;20024;-66
2022/01/17 05:06:47;;;;;;;9.23;2.13;;;;;;;;;;5054527;28;20540;-66
2022/01/17 05:09:14;;;;;;;14.93;2.77;;;;;;;;;;5047215;28;20021;-66
2022/01/17 05:11:42;;;;;;;8.00;2.70;;;;;;;;;;5052138;28;20029;-67
2022/01/17 05:14:09;;;;;;;7.33;2.13;;;;;;;;;;5052473;28;20479;-66
2022/01/17 05:16:43;;;;;;;9.53;2.27;;;;;;;;;;5056930;28;20029;-66
2022/01/17 05:21:55;;;;;;;7.07;2.38;;;;;;;;;;5071246;28;20672;-67
2022/01/17 05:24:21;;;;;;;8.43;2.37;;;;;;;;;;5067168;28;20028;-66
2022/01/17 05:26:48;;;;;;;9.80;2.50;;;;;;;;;;5066904;28;20364;-66
2022/01/17 05:29:16;;;;;;;10.03;2.80;;;;;;;;;;5061247;28;20036;-66
2022/01/17 05:31:42;;;;;;;7.30;2.03;;;;;;;;;;5055957;28;20533;-66
2022/01/17 05:34:09;;;;;;;8.43;2.23;;;;;;;;;;5071995;28;20016;-66
2022/01/17 05:36:36;;;;;;;5.80;2.10;;;;;;;;;;5068674;28;20021;-66
2022/01/17 05:39:03;;;;;;;10.23;3.00;;;;;;;;;;5052317;28;20017;-66
2022/01/17 05:41:30;;;;;;;4.03;1.87;;;;;;;;;;5058915;28;20017;-66
2022/01/17 05:43:57;;;;;;;7.37;2.50;;;;;;;;;;5071733;28;20048;-66
2022/01/17 05:46:24;;;;;;;7.03;2.27;;;;;;;;;;5066545;28;20029;-66
2022/01/17 05:48:51;;;;;;;4.17;1.80;;;;;;;;;;5067135;28;20047;-66
2022/01/17 05:51:18;;;;;;;3.90;2.00;;;;;;;;;;5066552;28;20064;-66
2022/01/17 05:53:44;;;;;;;8.83;1.97;;;;;;;;;;5058644;28;20040;-66
2022/01/17 05:56:11;;;;;;;6.37;2.30;;;;;;;;;;5052018;28;20391;-66
2022/01/17 05:58:38;;;;;;;4.40;2.07;;;;;;;;;;5066898;28;20032;-66
2022/01/17 06:01:05;;;;;;;4.90;1.77;;;;;;;;;;5069747;28;20024;-66
2022/01/17 06:03:32;;;;;;;6.47;2.17;;;;;;;;;;5075173;28;20367;-66
2022/01/17 06:05:59;;;;;;;5.83;2.20;;;;;;;;;;5071836;28;20032;-66
2022/01/17 06:08:26;;;;;;;4.10;1.97;;;;;;;;;;5059064;28;20017;-66
2022/01/17 06:10:52;;;;;;;4.63;2.17;;;;;;;;;;5070878;28;20375;-66
2022/01/17 06:13:19;;;;;;;4.50;1.80;;;;;;;;;;5070454;28;20035;-66
2022/01/17 06:15:46;;;;;;;2.70;1.60;;;;;;;;;;5070488;28;20494;-66
2022/01/17 06:18:12;;;;;;;6.27;1.87;;;;;;;;;;5075211;28;20020;-66
2022/01/17 06:20:39;;;;;;;7.67;2.07;;;;;;;;;;5074914;28;20091;-66
2022/01/17 06:23:06;;;;;;;4.20;2.27;;;;;;;;;;5075393;28;20467;-66
2022/01/17 06:25:33;;;;;;;6.03;2.40;;;;;;;;;;5075144;28;20032;-66
2022/01/17 06:28:00;;;;;;;5.17;2.20;;;;;;;;;;5075334;28;20048;-66
2022/01/17 06:30:27;;;;;;;7.13;2.63;;;;;;;;;;5070509;28;20680;-66
2022/01/17 06:32:53;;;;;;;8.10;1.80;;;;;;;;;;5068309;28;20021;-66
2022/01/17 06:35:20;;;;;;;6.83;2.23;;;;;;;;;;5052474;28;20021;-66
2022/01/17 06:37:48;;;;;;;5.83;2.17;;;;;;;;;;5059924;28;20032;-66
2022/01/17 06:40:15;;;;;;;9.30;2.80;;;;;;;;;;5054589;28;20059;-66
2022/01/17 06:42:42;;;;;;;5.50;2.13;;;;;;;;;;5055387;28;20124;-66
2022/01/17 06:45:09;;;;;;;4.63;1.80;;;;;;;;;;5055316;28;20039;-66
2022/01/17 06:47:37;;;;;;;4.10;1.70;;;;;;;;;;5055271;28;20107;-66
2022/01/17 06:50:08;;;;;;;7.13;2.23;;;;;;;;;;5055177;28;20029;-65
2022/01/17 06:52:35;;;;;;;5.23;1.87;;;;;;;;;;5054595;28;20029;-66
2022/01/17 06:55:02;;;;;;;5.00;2.33;;;;;;;;;;5070187;28;20078;-66
2022/01/17 06:57:29;;;;;;;3.60;1.90;;;;;;;;;;5065409;28;20108;-66
2022/01/17 06:59:55;;;;;;;4.83;1.60;;;;;;;;;;5049922;28;20025;-66
2022/01/17 07:02:22;;;;;;;4.07;1.60;;;;;;;;;;5053998;28;20081;-65
2022/01/17 07:04:49;;;;;;;5.63;1.70;;;;;;;;;;5054866;28;20021;-65
2022/01/17 07:07:16;;;;;;;5.03;2.50;;;;;;;;;;5062798;28;20521;-65
2022/01/17 07:09:43;;;;;;;7.17;3.67;;;;;;;;;;5059568;28;20784;-65
2022/01/17 07:12:10;;;;;;;5.00;1.77;;;;;;;;;;5062497;28;20032;-66
2022/01/17 07:14:41;;;;;;;6.67;2.17;;;;;;;;;;5068607;28;20043;-66
2022/01/17 07:17:09;;;;;;;4.07;1.60;;;;;;;;;;5069168;28;20020;-66
2022/01/17 07:19:37;;;;;;;4.10;1.73;;;;;;;;;;5068746;28;20629;-66
2022/01/17 07:22:04;;;;;;;7.83;3.60;;;;;;;;;;5068987;28;20036;-66
2022/01/17 07:24:31;;;;;;;5.10;1.93;;;;;;;;;;5073395;28;20032;-66
2022/01/17 07:26:58;;;;;;;3.10;1.63;;;;;;;;;;5074041;28;20036;-66
2022/01/17 07:29:26;;;;;;;3.33;1.63;;;;;;;;;;5055414;28;20029;-66
2022/01/17 07:31:53;;;;;;;4.10;1.73;;;;;;;;;;5054600;28;20499;-66
2022/01/17 07:34:20;;;;;;;3.40;1.47;;;;;;;;;;5069342;28;20289;-65
2022/01/17 07:36:46;;;;;;;5.50;2.37;;;;;;;;;;5069516;28;20029;-65
2022/01/17 07:39:13;;;;;;;4.70;2.17;;;;;;;;;;5066953;28;20055;-65
2022/01/17 07:41:40;;;;;;;5.43;2.03;;;;;;;;;;5069069;28;20029;-66
2022/01/17 07:44:17;;;;;;;3.80;1.77;;;;;;;;;;5068934;28;20032;-66
2022/01/17 07:46:55;;;;;;;4.70;2.40;;;;;;;;;;5073171;28;20029;-66
2022/01/17 07:49:23;;;;;;;3.17;1.80;;;;;;;;;;5073896;28;20035;-65
2022/01/17 07:51:51;;;;;;;5.80;3.23;;;;;;;;;;5073867;28;20030;-65
2022/01/17 07:54:18;;;;;;;4.30;2.30;;;;;;;;;;5056128;28;20357;-65
2022/01/17 07:56:46;;;;;;;4.87;2.20;;;;;;;;;;5054055;28;20041;-66
2022/01/17 07:59:13;;;;;;;3.83;1.70;;;;;;;;;;5048821;28;20273;-65
2022/01/17 08:01:40;;;;;;;4.77;2.10;;;;;;;;;;5052205;28;20016;-65
2022/01/17 08:04:07;;;;;;;8.17;2.20;;;;;;;;;;5051278;28;20021;-66
2022/01/17 08:06:39;;;;;;;6.17;2.60;;;;;;;;;;5060246;28;20767;-66
2022/01/17 08:09:13;;;;;;;4.20;2.20;;;;;;;;;;5072765;28;20039;-66
2022/01/17 08:11:39;;;;;;;4.33;2.77;;;;;;;;;;5062239;28;20258;-66
2022/01/17 08:14:06;;;;;;;5.03;2.03;;;;;;;;;;5067711;28;20273;-66
2022/01/17 08:16:33;;;;;;;4.07;2.00;;;;;;;;;;5073337;28;20024;-65
2022/01/17 08:19:00;;;;;;;4.37;2.20;;;;;;;;;;5073193;28;20269;-66
2022/01/17 08:21:27;;;;;;;4.27;2.20;;;;;;;;;;5068203;28;20261;-66
2022/01/17 08:23:54;;;;;;;4.57;2.00;;;;;;;;;;5067670;28;20413;-66
2022/01/17 08:26:21;;;;;;;9.37;2.70;;;;;;;;;;5068188;28;20285;-66
2022/01/17 08:28:48;;;;;;;8.83;3.57;;;;;;;;;;5067918;28;20318;-66
2022/01/17 08:31:15;;;;;;;5.43;2.30;;;;;;;;;;5072948;28;20258;-65
2022/01/17 08:33:42;;;;;;;4.50;2.03;;;;;;;;;;5062885;28;20392;-66
2022/01/17 08:36:11;;;;;;;5.40;2.07;;;;;;;;;;5053226;28;20028;-65
2022/01/17 08:38:38;;;;;;;8.17;2.20;;;;;;;;;;5053364;28;20743;-65
2022/01/17 08:41:05;;;;;;;7.13;2.37;;;;;;;;;;5053144;28;20621;-66
2022/01/17 08:43:32;;;;;;;4.43;2.30;;;;;;;;;;5054385;28;20261;-67
2022/01/17 08:45:58;;;;;;;5.37;2.53;;;;;;;;;;5067538;28;20293;-66
2022/01/17 08:48:25;;;;;;;5.27;2.13;;;;;;;;;;5067696;28;20342;-66
2022/01/17 08:50:52;;;;;;;4.73;2.10;;;;;;;;;;5068003;28;20292;-66
2022/01/17 08:53:19;;;;;;;3.77;1.97;;;;;;;;;;5057511;28;20274;-65
2022/01/17 08:55:46;;;;;;;6.50;2.43;;;;;;;;;;5053748;28;20369;-66
2022/01/17 08:58:13;;;;;;;6.07;2.33;;;;;;;;;;5064025;28;20258;-65
2022/01/17 09:00:40;;;;;;;3.87;2.13;;;;;;;;;;5052409;28;20250;-66
2022/01/17 09:03:07;;;;;;;6.53;2.20;;;;;;;;;;5064959;28;20257;-65
2022/01/17 09:05:34;;;;;;;5.23;2.47;;;;;;;;;;5067946;28;20790;-66
2022/01/17 09:08:01;;;;;;;4.50;2.20;;;;;;;;;;5067708;28;20319;-66
2022/01/17 09:10:28;;;;;;;6.37;2.00;;;;;;;;;;5067590;28;20253;-66
2022/01/17 09:12:57;;;;;;;6.33;2.60;;;;;;;;;;5065444;28;20286;-66
2022/01/17 09:15:24;;;;;;;5.27;1.80;;;;;;;;;;5056355;28;20732;-66
2022/01/17 09:17:51;;;;;;;5.17;2.10;;;;;;;;;;5071911;28;20272;-65
2022/01/17 09:20:17;;;;;;;12.17;2.63;;;;;;;;;;5072447;28;20336;-66
2022/01/17 09:22:44;;;;;;;5.43;2.13;;;;;;;;;;5072236;28;20336;-66
2022/01/17 09:25:12;;;;;;;4.97;2.37;;;;;;;;;;5072008;28;20269;-66
2022/01/17 09:27:40;;;;;;;4.30;2.30;;;;;;;;;;5067904;28;20249;-65
2022/01/17 09:30:09;;;;;;;3.37;2.10;;;;;;;;;;5066632;28;20266;-66
2022/01/17 09:32:36;;;;;;;5.50;2.87;;;;;;;;;;5064856;28;20265;-66
2022/01/17 09:35:04;;;;;;;5.03;2.50;;;;;;;;;;5063956;28;20344;-66
2022/01/17 09:37:30;;;;;;;5.07;2.37;;;;;;;;;;5068379;28;20620;-66
2022/01/17 09:39:57;;;;;;;7.73;2.80;;;;;;;;;;5052316;28;20266;-66
2022/01/17 09:42:24;;;;;;;5.27;2.10;;;;;;;;;;5052419;28;20266;-66
2022/01/17 09:44:50;;;;;;;7.47;2.30;;;;;;;;;;5051618;28;20262;-66
2022/01/17 09:47:18;;;;;;;9.20;2.00;;;;;;;;;;5067590;28;20351;-66
2022/01/17 09:49:53;;;;;;;5.07;2.37;;;;;;;;;;5067728;28;20273;-66
2022/01/17 09:54:53;;;;;;;6.37;2.63;;;;;;;;;;5047067;28;20328;-66
2022/01/17 09:57:22;;;;;;;4.70;2.50;;;;;;;;;;5063088;28;20356;-66
2022/01/17 09:59:48;;;;;;;4.40;2.20;;;;;;;;;;5071135;28;20253;-65
2022/01/17 10:02:16;;;;;;;7.13;3.43;;;;;;;;;;5071855;28;20364;-65
2022/01/17 10:04:43;;;;;;;4.83;2.43;;;;;;;;;;5055045;28;20261;-65
2022/01/17 10:07:10;;;;;;;5.77;2.00;;;;;;;;;;5065165;28;20289;-66
2022/01/17 10:09:39;;;;;;;3.87;1.97;;;;;;;;;;5066819;28;20320;-66
2022/01/17 10:12:06;;;;;;;6.60;2.37;;;;;;;;;;5047102;28;20320;-65
2022/01/17 10:14:36;;;;;;;4.13;2.30;;;;;;;;;;5056878;28;20265;-66
2022/01/17 10:17:13;;;;;;;7.87;2.90;;;;;;;;;;5056597;28;20277;-66
2022/01/17 10:19:40;;;;;;;7.23;2.73;;;;;;;;;;5046951;28;21071;-66
2022/01/17 10:22:22;;;;;;;6.50;2.50;;;;;;;;;;5051334;28;20768;-65
2022/01/17 10:25:03;;;;;;;5.67;2.43;;;;;;;;;;5070380;28;20269;-66
2022/01/17 10:35:33;;;;;;;3.55;2.15;;;;;;;;;;5047067;28;20380;-66
2022/01/17 10:38:10;;;;;;;9.00;2.57;;;;;;;;;;5046751;28;20527;-65
2022/01/17 10:40:38;;;;;;;5.40;2.40;;;;;;;;;;5046711;28;20419;-66
2022/01/17 10:43:06;;;;;;;7.20;2.10;;;;;;;;;;5048752;28;20277;-65
2022/01/17 10:45:41;;;;;;;4.43;2.33;;;;;;;;;;5051769;28;20751;-65
2022/01/17 10:48:08;;;;;;;4.80;2.33;;;;;;;;;;5053070;28;20294;-65
2022/01/17 10:50:37;;;;;;;8.30;2.97;;;;;;;;;;5074460;28;20073;-66
2022/01/17 10:53:05;;;;;;;5.37;2.70;;;;;;;;;;5069767;28;20273;-66
2022/01/17 10:55:35;;;;;;;5.17;2.43;;;;;;;;;;5052442;28;20258;-66
2022/01/17 10:58:09;;;;;;;4.30;2.07;;;;;;;;;;5054889;28;20265;-65
2022/01/17 11:00:46;;;;;;;3.67;1.93;;;;;;;;;;5069708;28;20269;-65
2022/01/17 11:03:14;;;;;;;4.00;2.27;;;;;;;;;;5069676;28;20265;-65
2022/01/17 11:05:43;;;;;;;3.90;2.03;;;;;;;;;;5071500;28;20274;-65
2022/01/17 11:08:10;;;;;;;3.60;2.03;;;;;;;;;;5055126;28;20608;-65
2022/01/17 11:10:39;;;;;;;3.37;1.73;;;;;;;;;;5055010;28;20254;-65
2022/01/17 11:13:10;;;;;;;3.77;1.70;;;;;;;;;;5054898;28;20266;-65
2022/01/17 11:15:38;;;;;;;4.20;1.77;;;;;;;;;;5055196;28;20597;-65
2022/01/17 11:18:11;;;;;;;4.03;1.90;;;;;;;;;;5051145;28;20274;-66
2022/01/17 11:20:38;;;;;;;2.93;1.50;;;;;;;;;;5054201;28;20763;-65
2022/01/17 11:23:05;;;;;;;6.33;2.07;;;;;;;;;;5068935;28;20269;-65
2022/01/17 11:25:35;;;;;;;6.80;2.93;;;;;;;;;;5069548;28;20289;-65
2022/01/17 11:28:04;;;;;;;4.60;2.43;;;;;;;;;;5072475;28;20670;-66
2022/01/17 11:30:33;;;;;;;6.97;2.93;;;;;;;;;;5074689;28;20680;-65
2022/01/17 11:33:07;;;;;;;7.53;3.47;;;;;;;;;;5070098;28;20693;-65
2022/01/17 11:35:37;;;;;;;6.13;2.45;;;;;;;;;;5054389;28;20265;-65
2022/01/17 11:38:04;;;;;;;8.60;2.67;;;;;;;;;;5054116;28;20017;-65
2022/01/17 11:40:32;;;;;;;4.60;2.27;;;;;;;;;;5050135;28;20767;-64
2022/01/17 11:42:59;;;;;;;4.30;2.70;;;;;;;;;;5049324;28;20298;-65
2022/01/17 11:45:26;;;;;;;2.87;1.70;;;;;;;;;;5049344;28;20345;-65
2022/01/17 11:47:57;;;;;;;7.17;2.17;;;;;;;;;;5049102;28;20748;-65
2022/01/17 11:53:02;;;;;;;7.80;2.90;;;;;;;;;;5063699;28;20269;-65
2022/01/17 11:58:24;;;;;;;7.13;2.13;;;;;;;;;;5071811;28;20266;-65
2022/01/17 12:01:00;;;;;;;4.20;2.37;;;;;;;;;;5057002;28;20289;-65
2022/01/17 12:03:30;;;;;;;7.20;2.50;;;;;;;;;;5063242;28;20270;-65
2022/01/17 12:05:57;;;;;;;4.47;2.20;;;;;;;;;;5048741;28;20288;-64
2022/01/17 12:08:27;;;;;;;4.20;2.17;;;;;;;;;;5059173;28;20269;-65
2022/01/17 12:10:57;;;;;;;4.00;2.00;;;;;;;;;;5068425;28;20665;-65
2022/01/17 12:13:34;;;;;;;4.10;1.90;;;;;;;;;;5062191;28;20270;-65
2022/01/17 12:16:11;;;;;;;5.87;1.83;;;;;;;;;;5073583;28;20255;-64
2022/01/17 12:18:37;;;;;;;4.63;2.17;;;;;;;;;;5073420;28;20703;-65
2022/01/17 12:21:19;;;;;;;5.67;2.50;;;;;;;;;;5073089;28;20261;-65
2022/01/17 12:23:46;;;;;;;4.73;2.20;;;;;;;;;;5071404;28;20277;-65
2022/01/17 12:26:27;;;;;;;3.93;2.50;;;;;;;;;;5059680;28;20289;-66
2022/01/17 12:28:57;;;;;;;3.50;2.20;;;;;;;;;;5062543;28;20346;-65
2022/01/17 12:31:42;;;;;;;6.53;2.40;;;;;;;;;;5057892;28;20270;-66
2022/01/17 12:34:19;;;;;;;6.05;2.70;;;;;;;;;;5062609;28;20277;-65
2022/01/17 12:36:47;;;;;;;4.87;2.67;;;;;;;;;;5053232;28;20018;-65
2022/01/17 12:39:15;;;;;;;6.03;2.97;;;;;;;;;;5052984;28;20265;-65
2022/01/17 12:41:43;;;;;;;4.60;2.47;;;;;;;;;;5053397;28;20269;-65
2022/01/17 12:44:14;;;;;;;5.77;3.13;;;;;;;;;;5053213;28;20254;-65
2022/01/17 12:46:44;;;;;;;4.93;2.53;;;;;;;;;;5049581;28;20902;-66
2022/01/17 12:49:11;;;;;;;4.57;2.80;;;;;;;;;;5047956;28;20273;-65
2022/01/17 12:51:45;;;;;;;8.07;2.37;;;;;;;;;;5047916;28;20258;-65
2022/01/17 12:54:16;;;;;;;5.97;2.60;;;;;;;;;;5063606;28;20322;-64
2022/01/17 12:56:47;;;;;;;3.73;2.10;;;;;;;;;;5055136;28;20631;-65
2022/01/17 12:59:16;;;;;;;6.47;2.73;;;;;;;;;;5072711;28;20276;-65
2022/01/17 13:01:44;;;;;;;4.17;2.67;;;;;;;;;;5061795;28;20303;-66
2022/01/17 13:04:12;;;;;;;4.83;2.53;;;;;;;;;;5052322;28;20269;-65
2022/01/17 13:06:40;;;;;;;4.47;2.10;;;;;;;;;;5067704;28;20285;-65
2022/01/17 13:09:20;;;;;;;5.17;2.40;;;;;;;;;;5068243;28;20771;-66
2022/01/17 13:11:48;;;;;;;10.50;3.60;;;;;;;;;;5066673;28;20752;-66
2022/01/17 13:14:16;;;;;;;7.37;2.90;;;;;;;;;;5067362;28;20266;-66
2022/01/17 13:16:43;;;;;;;7.07;2.63;;;;;;;;;;5065602;28;20759;-66
2022/01/17 13:19:11;;;;;;;5.67;2.73;;;;;;;;;;5051620;28;20782;-65
2022/01/17 13:21:40;;;;;;;5.47;2.80;;;;;;;;;;5052772;28;20628;-65
2022/01/17 13:25:02;;;;;;;6.67;2.73;;;;;;;;;;5052319;28;20616;-65
2022/01/17 13:27:00;;;;;;;7.60;3.50;;;;;;;;;;5043531;28;20373;-65
2022/01/17 13:29:27;;;;;;;7.30;3.30;;;;;;;;;;5070592;28;20356;-66
2022/01/17 13:31:54;;;;;;;8.20;3.07;;;;;;;;;;5064306;28;20273;-66
2022/01/17 13:34:25;;;;;;;8.00;2.83;;;;;;;;;;5056414;28;20348;-66
2022/01/17 13:36:53;;;;;;;4.80;2.60;;;;;;;;;;5066836;28;20264;-66
2022/01/17 13:39:21;;;;;;;5.33;2.63;;;;;;;;;;5053381;28;20374;-65
2022/01/17 13:41:50;;;;;;;5.13;2.83;;;;;;;;;;5052131;28;20269;-66
2022/01/17 13:44:24;;;;;;;6.20;2.93;;;;;;;;;;5052222;28;20759;-66
2022/01/17 13:47:03;;;;;;;7.03;3.57;;;;;;;;;;5052102;28;20294;-66
2022/01/17 13:49:31;;;;;;;4.23;2.70;;;;;;;;;;5051640;28;20269;-66
2022/01/17 13:51:59;;;;;;;5.07;2.93;;;;;;;;;;5051062;28;20311;-66
2022/01/17 13:54:26;;;;;;;7.87;3.70;;;;;;;;;;5059924;28;20269;-66
2022/01/17 13:56:53;;;;;;;6.93;2.83;;;;;;;;;;5066253;28;20348;-66
2022/01/17 13:59:22;;;;;;;9.80;3.23;;;;;;;;;;5062241;28;20263;-66
2022/01/17 14:01:50;;;;;;;4.97;2.80;;;;;;;;;;5048130;28;20262;-66
2022/01/17 14:04:22;;;;;;;5.63;3.10;;;;;;;;;;5058877;28;20300;-66
2022/01/17 14:06:49;;;;;;;8.10;2.47;;;;;;;;;;5051855;28;20037;-66
2022/01/17 14:09:15;;;;;;;6.07;3.10;;;;;;;;;;5064082;28;20033;-67
2022/01/17 14:11:45;;;;;;;12.20;2.93;;;;;;;;;;5072060;28;20036;-67
2022/01/17 14:14:14;;;;;;;8.47;3.10;;;;;;;;;;5070300;28;20039;-66
2022/01/17 14:16:43;;;;;;;6.43;3.00;;;;;;;;;;5065861;28;20374;-66
2022/01/17 14:19:15;;;;;;;7.07;3.17;;;;;;;;;;5066356;28;20024;-66
2022/01/17 14:21:43;;;;;;;8.23;2.60;;;;;;;;;;5066339;28;20021;-67
2022/01/17 14:24:12;;;;;;;8.03;3.37;;;;;;;;;;5050938;28;20033;-67
2022/01/17 14:26:41;;;;;;;9.17;2.90;;;;;;;;;;5055669;28;20075;-67
2022/01/17 14:29:09;;;;;;;13.87;3.27;;;;;;;;;;5055193;28;20522;-67
2022/01/17 14:31:36;;;;;;;7.67;2.83;;;;;;;;;;5069470;28;20021;-67
2022/01/17 14:34:13;;;;;;;8.80;2.50;;;;;;;;;;5059409;28;20098;-67
2022/01/17 14:36:41;;;;;;;6.17;3.03;;;;;;;;;;5053499;28;20025;-67
2022/01/17 14:39:09;;;;;;;4.30;2.43;;;;;;;;;;5050248;28;20025;-67
2022/01/17 14:41:37;;;;;;;5.70;2.67;;;;;;;;;;5049920;28;20375;-67
2022/01/17 14:44:06;;;;;;;8.43;3.33;;;;;;;;;;5050053;28;20021;-67
2022/01/17 14:46:33;;;;;;;5.97;2.90;;;;;;;;;;5051642;28;20056;-67
2022/01/17 14:49:00;;;;;;;5.37;2.40;;;;;;;;;;5064408;28;20032;-67
2022/01/17 14:51:28;;;;;;;6.27;3.30;;;;;;;;;;5071860;28;20545;-67
2022/01/17 14:54:05;;;;;;;5.20;2.53;;;;;;;;;;5058162;28;20029;-67
2022/01/17 14:59:40;;;;;;;5.68;2.88;;;;;;;;;;5071769;28;20085;-67
2022/01/17 15:04:38;;;;;;;4.43;2.50;;;;;;;;;;5049828;28;20036;-67
2022/01/17 15:07:13;;;;;;;6.10;2.77;;;;;;;;;;5049621;28;20649;-67
2022/01/17 15:09:39;;;;;;;;;;;;;;;;;;5053808;28;20029;-67
2022/01/17 15:12:06;;;;;;;7.27;3.50;;;;;;;;;;5054555;28;19909;-67
2022/01/17 15:14:38;;;;;;;4.97;3.23;;;;;;;;;;5068872;28;20025;-67
2022/01/17 15:17:09;;;;;;;7.30;3.00;;;;;;;;;;5074584;28;20024;-67
2022/01/17 15:19:36;;;;;;;6.40;3.10;;;;;;;;;;5060890;28;20375;-67
2022/01/17 15:22:03;;;;;;;9.00;2.83;;;;;;;;;;5050265;28;20064;-67
2022/01/17 15:24:30;;;;;;;5.47;2.93;;;;;;;;;;5049147;28;20029;-67
2022/01/17 15:26:57;;;;;;;7.13;3.57;;;;;;;;;;5048784;28;20040;-67